createdAt,value
2017-08-21T00:00:29.732Z,14.30
2017-08-21T00:02:57.368Z,14.30
2017-08-21T00:05:24.977Z,14.30
2017-08-21T00:07:52.578Z,14.30
2017-08-21T00:10:20.235Z,14.20
2017-08-21T00:12:47.820Z,14.20
2017-08-21T00:15:15.407Z,14.10
2017-08-21T00:17:43.809Z,14.10
2017-08-21T00:20:11.414Z,14.10
2017-08-21T00:22:39.770Z,14.00
2017-08-21T00:25:07.401Z,13.90
2017-08-21T00:27:34.987Z,13.90
2017-08-21T00:30:02.577Z,13.90
2017-08-21T00:32:30.221Z,13.90
2017-08-21T00:34:57.811Z,13.90
2017-08-21T00:37:25.514Z,13.90
2017-08-21T00:39:53.124Z,13.90
2017-08-21T00:42:20.732Z,13.80
2017-08-21T00:44:49.092Z,13.80
2017-08-21T00:47:17.493Z,13.80
2017-08-21T00:49:45.095Z,13.80
2017-08-21T00:52:12.684Z,13.80
2017-08-21T00:54:40.306Z,13.70
2017-08-21T00:57:07.888Z,13.70
2017-08-21T00:59:35.461Z,13.70
2017-08-21T01:02:03.098Z,13.70
2017-08-21T01:04:30.692Z,13.60
2017-08-21T01:06:58.286Z,13.60
2017-08-21T01:09:25.918Z,13.60
2017-08-21T01:11:53.513Z,13.60
2017-08-21T01:14:21.114Z,13.60
2017-08-21T01:16:48.773Z,13.60
2017-08-21T01:19:16.378Z,13.60
2017-08-21T01:21:43.965Z,13.60
2017-08-21T01:24:11.603Z,13.60
2017-08-21T01:26:39.192Z,13.60
2017-08-21T01:29:06.795Z,13.60
2017-08-21T01:31:34.432Z,13.60
2017-08-21T01:34:02.016Z,13.70
2017-08-21T01:36:29.590Z,13.70
2017-08-21T01:38:57.247Z,13.70
2017-08-21T01:41:24.849Z,13.70
2017-08-21T01:43:52.418Z,13.70
2017-08-21T01:46:20.046Z,13.70
2017-08-21T01:48:47.632Z,13.70
2017-08-21T01:51:15.207Z,13.70
2017-08-21T01:53:43.603Z,13.70
2017-08-21T01:56:11.185Z,13.70
2017-08-21T01:58:38.778Z,13.60
2017-08-21T02:01:06.538Z,13.60
2017-08-21T02:03:34.124Z,13.60
2017-08-21T02:06:01.700Z,13.70
2017-08-21T02:08:29.321Z,13.70
2017-08-21T02:10:56.898Z,13.70
2017-08-21T02:13:25.248Z,13.60
2017-08-21T02:15:53.649Z,13.50
2017-08-21T02:18:21.236Z,13.50
2017-08-21T02:20:48.829Z,13.50
2017-08-21T02:23:16.462Z,13.40
2017-08-21T02:25:44.050Z,13.40
2017-08-21T02:28:11.641Z,13.40
2017-08-21T02:30:40.046Z,13.40
2017-08-21T02:33:07.682Z,13.40
2017-08-21T02:35:35.268Z,13.40
2017-08-21T02:38:07.687Z,13.30
2017-08-21T02:40:35.286Z,13.30
2017-08-21T02:43:03.623Z,13.30
2017-08-21T02:45:31.437Z,13.30
2017-08-21T02:47:59.033Z,13.30
2017-08-21T02:50:26.634Z,13.30
2017-08-21T02:52:54.261Z,13.30
2017-08-21T02:55:21.863Z,13.30
2017-08-21T02:57:49.466Z,13.30
2017-08-21T03:00:17.101Z,13.30
2017-08-21T03:02:44.688Z,13.40
2017-08-21T03:05:12.272Z,13.30
2017-08-21T03:07:39.942Z,13.40
2017-08-21T03:10:07.528Z,13.40
2017-08-21T03:12:35.127Z,13.40
2017-08-21T03:15:02.771Z,13.40
2017-08-21T03:17:30.356Z,13.40
2017-08-21T03:19:57.943Z,13.40
2017-08-21T03:22:25.579Z,13.40
2017-08-21T03:24:53.178Z,13.40
2017-08-21T03:27:20.760Z,13.40
2017-08-21T03:29:48.520Z,13.50
2017-08-21T03:32:16.109Z,13.40
2017-08-21T03:34:43.683Z,13.40
2017-08-21T03:37:11.339Z,13.40
2017-08-21T03:39:38.938Z,13.40
2017-08-21T03:42:06.534Z,13.40
2017-08-21T03:44:34.942Z,13.40
2017-08-21T03:47:02.524Z,13.40
2017-08-21T03:49:30.838Z,13.40
2017-08-21T03:51:58.489Z,13.40
2017-08-21T03:54:26.112Z,13.40
2017-08-21T03:56:53.701Z,13.40
2017-08-21T03:59:21.504Z,13.40
2017-08-21T04:01:49.078Z,13.40
2017-08-21T04:04:16.660Z,13.40
2017-08-21T04:06:44.298Z,13.40
2017-08-21T04:09:11.875Z,13.40
2017-08-21T04:11:39.476Z,13.40
2017-08-21T04:14:07.127Z,13.40
2017-08-21T04:16:34.699Z,13.40
2017-08-21T04:19:02.293Z,13.40
2017-08-21T04:21:29.938Z,13.40
2017-08-21T04:23:57.515Z,13.40
2017-08-21T04:26:25.105Z,13.40
2017-08-21T04:28:52.745Z,13.50
2017-08-21T04:31:20.346Z,13.40
2017-08-21T04:33:47.948Z,13.50
2017-08-21T04:36:15.584Z,13.60
2017-08-21T04:38:43.176Z,13.60
2017-08-21T04:41:10.770Z,13.70
2017-08-21T04:43:38.434Z,13.60
2017-08-21T04:46:06.033Z,13.70
2017-08-21T04:48:33.605Z,13.70
2017-08-21T04:51:01.249Z,13.70
2017-08-21T04:53:28.822Z,13.70
2017-08-21T04:55:56.478Z,13.70
2017-08-21T04:58:24.107Z,13.80
2017-08-21T05:00:51.698Z,13.80
2017-08-21T05:03:20.051Z,13.90
2017-08-21T05:05:47.707Z,13.90
2017-08-21T05:08:16.049Z,14.00
2017-08-21T05:10:43.627Z,14.00
2017-08-21T05:13:11.255Z,14.00
2017-08-21T05:15:39.590Z,14.10
2017-08-21T05:18:07.173Z,14.10
2017-08-21T05:20:35.035Z,14.10
2017-08-21T05:23:02.614Z,14.10
2017-08-21T05:25:30.218Z,14.10
2017-08-21T05:27:57.847Z,14.20
2017-08-21T05:30:26.215Z,14.20
2017-08-21T05:32:53.793Z,14.20
2017-08-21T05:35:21.441Z,14.20
2017-08-21T05:37:49.060Z,14.20
2017-08-21T05:40:16.648Z,14.30
2017-08-21T05:42:44.294Z,14.40
2017-08-21T05:45:11.870Z,14.40
2017-08-21T05:47:40.237Z,14.40
2017-08-21T05:50:08.633Z,14.50
2017-08-21T05:52:36.207Z,14.50
2017-08-21T05:55:03.805Z,14.60
2017-08-21T05:57:31.458Z,14.80
2017-08-21T05:59:59.048Z,14.90
2017-08-21T06:02:26.622Z,15.00
2017-08-21T06:04:55.031Z,15.10
2017-08-21T06:07:22.615Z,15.10
2017-08-21T06:09:50.243Z,15.20
2017-08-21T06:12:17.894Z,15.20
2017-08-21T06:14:46.358Z,15.80
2017-08-21T06:17:14.066Z,15.80
2017-08-21T06:19:41.691Z,16.60
2017-08-21T06:22:10.047Z,16.70
2017-08-21T06:24:37.618Z,16.60
2017-08-21T06:27:05.291Z,16.60
2017-08-21T06:29:32.858Z,16.60
2017-08-21T06:32:00.426Z,16.70
2017-08-21T06:34:28.124Z,16.70
2017-08-21T06:36:56.054Z,16.90
2017-08-21T06:39:23.631Z,17.10
2017-08-21T06:41:51.266Z,17.30
2017-08-21T06:44:18.830Z,17.30
2017-08-21T06:46:46.412Z,17.50
2017-08-21T06:49:14.048Z,18.20
2017-08-21T06:51:41.637Z,19.10
2017-08-21T06:54:09.242Z,19.90
2017-08-21T06:56:36.895Z,20.50
2017-08-21T06:59:04.585Z,20.80
2017-08-21T07:01:32.178Z,20.80
2017-08-21T07:03:59.838Z,20.90
2017-08-21T07:06:27.434Z,21.40
2017-08-21T07:08:55.012Z,21.60
2017-08-21T07:11:22.647Z,21.50
2017-08-21T07:13:50.233Z,21.60
2017-08-21T07:16:17.821Z,21.80
2017-08-21T07:18:46.233Z,22.30
2017-08-21T07:21:13.824Z,22.30
2017-08-21T07:23:41.396Z,22.20
2017-08-21T07:26:37.331Z,22.10
2017-08-21T07:29:04.925Z,21.90
2017-08-21T07:31:32.516Z,21.60
2017-08-21T07:34:00.135Z,21.40
2017-08-21T07:36:27.730Z,21.60
2017-08-21T07:38:55.330Z,21.60
2017-08-21T07:41:22.980Z,21.70
2017-08-21T07:43:50.546Z,21.80
2017-08-21T07:46:18.133Z,21.90
2017-08-21T07:48:45.773Z,21.80
2017-08-21T07:51:13.343Z,21.80
2017-08-21T07:53:40.924Z,21.80
2017-08-21T07:56:08.571Z,21.80
2017-08-21T07:58:36.168Z,21.80
2017-08-21T08:01:03.751Z,21.70
2017-08-21T08:03:31.406Z,21.50
2017-08-21T08:05:59.130Z,21.00
2017-08-21T08:08:26.780Z,20.50
2017-08-21T08:10:54.439Z,20.20
2017-08-21T08:13:22.028Z,20.00
2017-08-21T08:15:49.616Z,19.80
2017-08-21T08:18:17.247Z,19.70
2017-08-21T08:20:44.836Z,19.50
2017-08-21T08:23:12.418Z,19.30
2017-08-21T08:25:40.060Z,19.30
2017-08-21T08:28:07.642Z,19.20
2017-08-21T08:30:35.222Z,19.20
2017-08-21T08:33:02.865Z,19.10
2017-08-21T08:35:30.462Z,18.80
2017-08-21T08:37:58.049Z,18.60
2017-08-21T08:40:25.688Z,18.50
2017-08-21T08:42:53.281Z,18.40
2017-08-21T08:45:20.870Z,18.40
2017-08-21T08:47:48.673Z,18.50
2017-08-21T08:50:16.278Z,18.50
2017-08-21T08:52:43.880Z,18.30
2017-08-21T08:55:11.530Z,18.20
2017-08-21T08:57:39.127Z,17.90
2017-08-21T09:00:06.707Z,17.70
2017-08-21T09:02:34.487Z,17.50
2017-08-21T09:05:02.072Z,17.50
2017-08-21T09:07:29.650Z,17.50
2017-08-21T09:09:57.280Z,17.70
2017-08-21T09:12:24.868Z,17.90
2017-08-21T09:14:52.457Z,18.10
2017-08-21T09:17:20.078Z,18.20
2017-08-21T09:19:47.670Z,18.50
2017-08-21T09:22:15.258Z,18.60
2017-08-21T09:24:42.909Z,18.80
2017-08-21T09:27:10.516Z,19.00
2017-08-21T09:29:38.103Z,19.20
2017-08-21T09:32:05.743Z,19.20
2017-08-21T09:34:33.329Z,19.20
2017-08-21T09:37:00.932Z,19.10
2017-08-21T09:39:28.551Z,18.90
2017-08-21T09:41:56.132Z,18.60
2017-08-21T09:44:23.741Z,18.30
2017-08-21T09:46:51.508Z,18.00
2017-08-21T09:49:19.092Z,17.90
2017-08-21T09:51:46.673Z,17.70
2017-08-21T09:54:14.303Z,17.70
2017-08-21T09:56:41.939Z,17.70
2017-08-21T09:59:09.528Z,17.90
2017-08-21T10:01:37.161Z,18.10
2017-08-21T10:04:04.753Z,18.40
2017-08-21T10:06:32.342Z,18.70
2017-08-21T10:09:00.003Z,18.80
2017-08-21T10:11:27.594Z,19.10
2017-08-21T10:13:55.180Z,19.20
2017-08-21T10:16:23.016Z,19.50
2017-08-21T10:18:50.614Z,19.60
2017-08-21T10:21:18.197Z,19.90
2017-08-21T10:23:45.835Z,20.30
2017-08-21T10:26:13.441Z,20.80
2017-08-21T10:28:41.016Z,21.20
2017-08-21T10:31:08.645Z,21.60
2017-08-21T10:33:36.231Z,22.10
2017-08-21T10:36:03.813Z,22.20
2017-08-21T10:38:31.446Z,22.20
2017-08-21T10:40:59.028Z,21.80
2017-08-21T10:43:26.611Z,21.60
2017-08-21T10:45:54.238Z,21.40
2017-08-21T10:48:21.823Z,21.20
2017-08-21T10:50:49.401Z,21.10
2017-08-21T10:53:17.042Z,20.90
2017-08-21T10:55:44.642Z,20.80
2017-08-21T10:58:12.226Z,20.70
2017-08-21T11:00:39.879Z,20.70
2017-08-21T11:03:07.478Z,20.70
2017-08-21T11:05:35.064Z,20.70
2017-08-21T11:08:03.613Z,21.00
2017-08-21T11:10:31.213Z,21.20
2017-08-21T11:12:58.800Z,21.40
2017-08-21T11:15:26.447Z,21.60
2017-08-21T11:17:54.048Z,21.60
2017-08-21T11:20:21.644Z,21.50
2017-08-21T11:22:49.286Z,21.60
2017-08-21T11:25:16.881Z,21.80
2017-08-21T11:27:44.465Z,22.00
2017-08-21T11:30:12.088Z,22.20
2017-08-21T11:32:39.659Z,22.50
2017-08-21T11:35:07.249Z,22.50
2017-08-21T11:37:34.871Z,22.60
2017-08-21T11:40:03.232Z,22.50
2017-08-21T11:42:31.598Z,22.40
2017-08-21T11:44:59.211Z,22.30
2017-08-21T11:47:26.783Z,22.30
2017-08-21T11:49:54.379Z,22.10
2017-08-21T11:52:22.021Z,22.10
2017-08-21T11:54:49.623Z,22.10
2017-08-21T11:57:17.216Z,22.20
2017-08-21T11:59:45.012Z,22.40
2017-08-21T12:02:12.614Z,22.60
2017-08-21T12:04:40.192Z,22.80
2017-08-21T12:07:07.822Z,22.80
2017-08-21T12:09:35.400Z,22.60
2017-08-21T12:12:02.963Z,22.20
2017-08-21T12:14:30.594Z,21.90
2017-08-21T12:16:58.174Z,21.60
2017-08-21T12:19:25.782Z,21.50
2017-08-21T12:21:53.391Z,21.40
2017-08-21T12:24:20.985Z,21.30
2017-08-21T12:26:48.578Z,21.40
2017-08-21T12:29:16.205Z,21.40
2017-08-21T12:31:43.822Z,21.70
2017-08-21T12:34:11.408Z,21.80
2017-08-21T12:36:39.043Z,21.90
2017-08-21T12:39:06.668Z,22.00
2017-08-21T12:41:34.239Z,21.80
2017-08-21T12:44:01.891Z,21.80
2017-08-21T12:46:29.491Z,22.10
2017-08-21T12:48:57.073Z,22.30
2017-08-21T12:51:24.740Z,22.40
2017-08-21T12:53:52.306Z,22.50
2017-08-21T12:56:19.889Z,22.60
2017-08-21T12:58:47.538Z,22.60
2017-08-21T13:01:15.134Z,22.60
2017-08-21T13:03:42.780Z,22.50
2017-08-21T13:06:10.404Z,22.40
2017-08-21T13:08:37.971Z,22.40
2017-08-21T13:11:05.544Z,22.50
2017-08-21T13:13:33.465Z,22.20
2017-08-21T13:16:01.053Z,22.00
2017-08-21T13:18:28.652Z,21.80
2017-08-21T13:20:56.283Z,21.80
2017-08-21T13:23:23.881Z,21.80
2017-08-21T13:25:51.455Z,21.80
2017-08-21T13:28:19.230Z,21.90
2017-08-21T13:30:46.827Z,21.90
2017-08-21T13:33:14.421Z,21.60
2017-08-21T13:35:42.040Z,21.40
2017-08-21T13:38:09.615Z,21.20
2017-08-21T13:40:37.196Z,21.10
2017-08-21T13:43:04.830Z,20.90
2017-08-21T13:45:32.412Z,20.80
2017-08-21T13:48:00.013Z,20.70
2017-08-21T13:50:27.652Z,20.70
2017-08-21T13:52:55.233Z,20.80
2017-08-21T13:55:22.815Z,20.80
2017-08-21T13:57:50.452Z,20.80
2017-08-21T14:00:18.367Z,20.90
2017-08-21T14:02:46.004Z,21.10
2017-08-21T14:05:13.633Z,21.30
2017-08-21T14:07:41.203Z,21.40
2017-08-21T14:10:08.856Z,21.30
2017-08-21T14:12:36.483Z,21.30
2017-08-21T14:15:04.060Z,21.40
2017-08-21T14:17:31.640Z,21.50
2017-08-21T14:19:59.254Z,21.50
2017-08-21T14:22:26.842Z,21.80
2017-08-21T14:24:54.462Z,21.90
2017-08-21T14:27:22.067Z,21.70
2017-08-21T14:29:49.645Z,21.70
2017-08-21T14:32:17.218Z,21.40
2017-08-21T14:34:44.958Z,21.20
2017-08-21T14:37:12.536Z,21.20
2017-08-21T14:39:40.102Z,21.20
2017-08-21T14:42:07.746Z,21.20
2017-08-21T14:44:35.349Z,21.20
2017-08-21T14:47:03.018Z,21.10
2017-08-21T14:49:30.661Z,21.10
2017-08-21T14:51:58.309Z,21.10
2017-08-21T14:54:25.905Z,21.00
2017-08-21T14:56:53.601Z,20.90
2017-08-21T14:59:21.188Z,20.70
2017-08-21T15:01:48.792Z,20.60
2017-08-21T15:04:16.454Z,20.50
2017-08-21T15:06:44.049Z,20.30
2017-08-21T15:09:11.669Z,20.20
2017-08-21T15:11:40.094Z,20.00
2017-08-21T15:14:07.676Z,20.00
2017-08-21T15:16:35.255Z,20.00
2017-08-21T15:19:02.918Z,20.10
2017-08-21T15:21:30.518Z,20.20
2017-08-21T15:23:58.114Z,20.20
2017-08-21T15:26:25.739Z,20.20
2017-08-21T15:28:53.340Z,20.30
2017-08-21T15:31:20.945Z,20.20
2017-08-21T15:33:48.576Z,20.20
2017-08-21T15:36:16.150Z,20.10
2017-08-21T15:38:43.750Z,20.10
2017-08-21T15:41:12.857Z,20.00
2017-08-21T15:43:41.525Z,19.90
2017-08-21T15:46:09.384Z,19.90
2017-08-21T15:48:37.019Z,19.80
2017-08-21T15:51:04.618Z,19.80
2017-08-21T15:53:32.208Z,19.70
2017-08-21T15:55:59.850Z,19.70
2017-08-21T15:58:27.449Z,19.80
2017-08-21T16:00:55.067Z,19.90
2017-08-21T16:03:22.698Z,20.00
2017-08-21T16:05:50.297Z,20.10
2017-08-21T16:08:17.876Z,20.00
2017-08-21T16:10:45.508Z,19.80
2017-08-21T16:13:13.093Z,19.60
2017-08-21T16:15:40.679Z,19.60
2017-08-21T16:18:08.306Z,19.60
2017-08-21T16:20:36.008Z,19.60
2017-08-21T16:23:03.614Z,19.60
2017-08-21T16:25:31.234Z,19.70
2017-08-21T16:27:58.835Z,19.60
2017-08-21T16:30:26.483Z,19.60
2017-08-21T16:32:54.294Z,19.50
2017-08-21T16:35:21.894Z,19.50
2017-08-21T16:37:49.515Z,19.50
2017-08-21T16:40:17.472Z,19.30
2017-08-21T16:42:45.066Z,19.20
2017-08-21T16:45:12.676Z,19.20
2017-08-21T16:47:40.373Z,19.10
2017-08-21T16:50:08.005Z,19.10
2017-08-21T16:52:35.615Z,19.10
2017-08-21T16:55:03.245Z,19.00
2017-08-21T16:57:30.847Z,19.00
2017-08-21T16:59:58.430Z,18.90
2017-08-21T17:02:26.073Z,18.70
2017-08-21T17:04:53.738Z,18.60
2017-08-21T17:07:21.370Z,18.50
2017-08-21T17:09:49.014Z,18.40
2017-08-21T17:12:16.594Z,19.50
2017-08-21T17:14:44.209Z,18.20
2017-08-21T17:17:11.849Z,18.20
2017-08-21T17:19:39.437Z,18.10
2017-08-21T17:22:07.038Z,18.10
2017-08-21T17:24:34.682Z,18.00
2017-08-21T17:27:02.267Z,18.00
2017-08-21T17:29:29.869Z,17.90
2017-08-21T17:31:57.517Z,17.90
2017-08-21T17:34:25.101Z,17.80
2017-08-21T17:36:52.693Z,17.60
2017-08-21T17:39:20.332Z,17.60
2017-08-21T17:41:47.916Z,17.50
2017-08-21T17:44:15.499Z,17.40
2017-08-21T17:46:43.448Z,17.40
2017-08-21T17:49:11.033Z,17.30
2017-08-21T17:51:38.606Z,17.30
2017-08-21T17:54:06.283Z,17.20
2017-08-21T17:56:33.907Z,17.10
2017-08-21T17:59:01.499Z,17.10
2017-08-21T18:01:29.128Z,17.10
2017-08-21T18:03:56.709Z,17.00
2017-08-21T18:06:24.293Z,16.90
2017-08-21T18:08:51.954Z,16.80
2017-08-21T18:11:19.541Z,16.70
2017-08-21T18:13:47.179Z,16.70
2017-08-21T18:16:15.646Z,16.60
2017-08-21T18:18:43.393Z,16.50
2017-08-21T18:21:10.982Z,16.50
2017-08-21T18:23:38.844Z,16.40
2017-08-21T18:26:06.471Z,16.40
2017-08-21T18:28:34.056Z,16.30
2017-08-21T18:31:01.678Z,16.20
2017-08-21T18:33:29.264Z,16.20
2017-08-21T18:35:56.844Z,16.10
2017-08-21T18:38:24.489Z,16.10
2017-08-21T18:40:52.118Z,16.00
2017-08-21T18:43:19.855Z,15.90
2017-08-21T18:45:47.481Z,15.90
2017-08-21T18:48:15.065Z,15.80
2017-08-21T18:50:42.681Z,15.70
2017-08-21T18:53:10.508Z,15.70
2017-08-21T18:55:38.110Z,15.60
2017-08-21T18:58:06.059Z,15.60
2017-08-21T19:00:33.834Z,15.60
2017-08-21T19:03:01.532Z,15.50
2017-08-21T19:05:29.606Z,15.50
2017-08-21T19:07:57.462Z,15.40
2017-08-21T19:10:25.345Z,15.40
2017-08-21T19:12:52.984Z,15.30
2017-08-21T19:15:20.922Z,15.30
2017-08-21T19:17:48.972Z,15.30
2017-08-21T19:20:16.685Z,15.20
2017-08-21T19:22:44.398Z,15.20
2017-08-21T19:25:12.381Z,15.10
2017-08-21T19:27:40.303Z,15.10
2017-08-21T19:30:07.941Z,15.00
2017-08-21T19:32:35.520Z,15.00
2017-08-21T19:35:03.114Z,15.00
2017-08-21T19:37:30.746Z,14.90
2017-08-21T19:39:58.332Z,14.90
2017-08-21T19:42:25.902Z,14.80
2017-08-21T19:44:53.539Z,14.80
2017-08-21T19:47:21.136Z,14.80
2017-08-21T19:49:48.743Z,14.70
2017-08-21T19:52:16.366Z,14.70
2017-08-21T19:54:43.949Z,14.70
2017-08-21T19:57:11.528Z,14.60
2017-08-21T19:59:39.168Z,14.60
2017-08-21T20:02:06.770Z,14.50
2017-08-21T20:04:34.380Z,14.50
2017-08-21T20:07:02.016Z,14.50
2017-08-21T20:09:29.614Z,14.40
2017-08-21T20:11:57.205Z,14.40
2017-08-21T20:14:25.752Z,14.30
2017-08-21T20:16:53.342Z,14.30
2017-08-21T20:19:20.928Z,14.30
2017-08-21T20:21:48.721Z,14.20
2017-08-21T20:24:16.380Z,14.20
2017-08-21T20:26:43.982Z,14.20
2017-08-21T20:29:11.610Z,14.10
2017-08-21T20:31:39.211Z,14.10
2017-08-21T20:34:06.800Z,14.00
2017-08-21T20:36:34.457Z,14.00
2017-08-21T20:39:02.063Z,14.00
2017-08-21T20:41:29.668Z,13.90
2017-08-21T20:43:57.325Z,13.90
2017-08-21T20:46:24.908Z,13.90
2017-08-21T20:48:52.483Z,13.90
2017-08-21T20:51:20.114Z,13.80
2017-08-21T20:53:47.707Z,13.80
2017-08-21T20:56:15.331Z,13.80
2017-08-21T20:58:42.956Z,13.80
2017-08-21T21:01:10.553Z,13.70
2017-08-21T21:03:38.146Z,13.70
2017-08-21T21:06:05.767Z,13.70
2017-08-21T21:08:33.355Z,13.70
2017-08-21T21:11:00.938Z,13.70
2017-08-21T21:13:28.564Z,13.70
2017-08-21T21:15:56.160Z,13.70
2017-08-21T21:18:23.741Z,13.70
2017-08-21T21:20:51.384Z,13.60
2017-08-21T21:23:18.982Z,13.60
2017-08-21T21:25:46.566Z,13.60
2017-08-21T21:28:14.201Z,13.60
2017-08-21T21:30:41.781Z,13.60
2017-08-21T21:33:09.360Z,13.60
2017-08-21T21:35:36.972Z,13.50
2017-08-21T21:38:04.548Z,13.50
2017-08-21T21:40:32.150Z,13.50
2017-08-21T21:42:59.790Z,13.50
2017-08-21T21:45:27.382Z,13.50
2017-08-21T21:47:54.973Z,13.40
2017-08-21T21:50:22.928Z,13.40
2017-08-21T21:52:50.515Z,13.40
2017-08-21T21:55:18.102Z,13.40
2017-08-21T21:57:45.745Z,13.40
2017-08-21T22:00:13.344Z,13.30
2017-08-21T22:02:40.922Z,13.30
2017-08-21T22:05:08.573Z,13.30
2017-08-21T22:07:36.157Z,13.30
2017-08-21T22:10:03.745Z,13.30
2017-08-21T22:12:31.376Z,13.40
2017-08-21T22:14:58.974Z,13.50
2017-08-21T22:17:26.570Z,13.50
2017-08-21T22:19:54.207Z,13.50
2017-08-21T22:22:21.792Z,13.50
2017-08-21T22:24:49.394Z,13.50
2017-08-21T22:27:17.020Z,13.50
2017-08-21T22:29:44.603Z,13.50
2017-08-21T22:32:12.184Z,13.60
2017-08-21T22:34:39.826Z,13.70
2017-08-21T22:37:07.424Z,13.70
2017-08-21T22:39:35.004Z,13.70
2017-08-21T22:42:02.859Z,13.70
2017-08-21T22:44:30.449Z,13.60
2017-08-21T22:46:58.022Z,13.60
2017-08-21T22:49:25.896Z,13.50
2017-08-21T22:51:53.481Z,13.50
2017-08-21T22:54:21.064Z,13.40
2017-08-21T22:56:48.702Z,13.40
2017-08-21T22:59:16.303Z,13.40
2017-08-21T23:01:43.902Z,13.40
2017-08-21T23:04:11.541Z,13.30
2017-08-21T23:06:39.125Z,13.20
2017-08-21T23:09:06.718Z,13.20
2017-08-21T23:11:34.360Z,13.10
2017-08-21T23:14:01.938Z,13.10
2017-08-21T23:16:29.521Z,13.10
2017-08-21T23:18:57.158Z,13.00
2017-08-21T23:21:24.748Z,13.00
2017-08-21T23:23:52.387Z,13.00
2017-08-21T23:26:20.779Z,12.90
2017-08-21T23:28:48.365Z,12.80
2017-08-21T23:31:16.003Z,12.80
2017-08-21T23:33:43.766Z,12.80
2017-08-21T23:36:11.352Z,12.70
2017-08-21T23:38:38.922Z,12.70
2017-08-21T23:41:06.574Z,12.70
2017-08-21T23:43:34.170Z,12.70
2017-08-21T23:46:01.756Z,12.60
2017-08-21T23:48:29.398Z,12.60
2017-08-21T23:50:56.997Z,12.50
2017-08-21T23:53:24.581Z,12.50
2017-08-21T23:55:52.216Z,12.50
2017-08-21T23:58:19.790Z,12.50
